sensor_id;sensor_type;location;lat;lon;timestamp;P1;durP1;ratioP1;P2;durP2;ratioP2
54575;SDS011;40472;53.486;14.542;2023-04-24T00:01:37;3.58;;;2.03;;
54575;SDS011;40472;53.486;14.542;2023-04-24T00:04:06;2.92;;;1.73;;
54575;SDS011;40472;53.486;14.542;2023-04-24T00:06:35;2.60;;;1.70;;
54575;SDS011;40472;53.486;14.542;2023-04-24T00:09:02;1.48;;;1.38;;
54575;SDS011;40472;53.486;14.542;2023-04-24T00:11:29;2.60;;;1.33;;
54575;SDS011;40472;53.486;14.542;2023-04-24T00:14:00;1.98;;;1.50;;
54575;SDS011;40472;53.486;14.542;2023-04-24T00:16:26;1.23;;;1.05;;
54575;SDS011;40472;53.486;14.542;2023-04-24T00:18:52;10.80;;;1.88;;
54575;SDS011;40472;53.486;14.542;2023-04-24T00:21:19;2.58;;;2.13;;
54575;SDS011;40472;53.486;14.542;2023-04-24T00:23:47;2.70;;;0.90;;
54575;SDS011;40472;53.486;14.542;2023-04-24T00:26:13;4.40;;;2.03;;
54575;SDS011;40472;53.486;14.542;2023-04-24T00:28:39;2.17;;;0.80;;
54575;SDS011;40472;53.486;14.542;2023-04-24T00:31:05;2.10;;;1.85;;
54575;SDS011;40472;53.486;14.542;2023-04-24T00:33:31;5.18;;;1.55;;
54575;SDS011;40472;53.486;14.542;2023-04-24T00:35:57;3.42;;;2.03;;
54575;SDS011;40472;53.486;14.542;2023-04-24T00:38:26;1.33;;;1.23;;
54575;SDS011;40472;53.486;14.542;2023-04-24T00:40:52;2.42;;;1.27;;
54575;SDS011;40472;53.486;14.542;2023-04-24T00:43:19;1.02;;;1.00;;
54575;SDS011;40472;53.486;14.542;2023-04-24T00:45:45;2.65;;;2.05;;
54575;SDS011;40472;53.486;14.542;2023-04-24T00:48:12;1.52;;;1.40;;
54575;SDS011;40472;53.486;14.542;2023-04-24T00:50:38;4.28;;;1.77;;
54575;SDS011;40472;53.486;14.542;2023-04-24T00:53:04;1.73;;;1.60;;
54575;SDS011;40472;53.486;14.542;2023-04-24T00:55:31;1.77;;;1.67;;
54575;SDS011;40472;53.486;14.542;2023-04-24T00:57:57;2.75;;;2.00;;
54575;SDS011;40472;53.486;14.542;2023-04-24T01:00:24;3.22;;;2.17;;
54575;SDS011;40472;53.486;14.542;2023-04-24T01:02:50;6.90;;;1.80;;
54575;SDS011;40472;53.486;14.542;2023-04-24T01:05:19;5.80;;;2.83;;
54575;SDS011;40472;53.486;14.542;2023-04-24T01:07:45;3.97;;;1.65;;
54575;SDS011;40472;53.486;14.542;2023-04-24T01:10:14;4.35;;;2.17;;
54575;SDS011;40472;53.486;14.542;2023-04-24T01:12:40;2.05;;;1.70;;
54575;SDS011;40472;53.486;14.542;2023-04-24T01:15:06;3.92;;;2.13;;
54575;SDS011;40472;53.486;14.542;2023-04-24T01:17:33;2.92;;;1.48;;
54575;SDS011;40472;53.486;14.542;2023-04-24T01:20:00;2.15;;;1.27;;
54575;SDS011;40472;53.486;14.542;2023-04-24T01:22:26;4.78;;;2.92;;
54575;SDS011;40472;53.486;14.542;2023-04-24T01:24:53;5.32;;;3.15;;
54575;SDS011;40472;53.486;14.542;2023-04-24T01:27:18;2.05;;;1.33;;
54575;SDS011;40472;53.486;14.542;2023-04-24T01:29:47;2.28;;;1.55;;
54575;SDS011;40472;53.486;14.542;2023-04-24T01:32:14;2.85;;;2.15;;
54575;SDS011;40472;53.486;14.542;2023-04-24T01:34:41;3.13;;;2.60;;
54575;SDS011;40472;53.486;14.542;2023-04-24T01:37:08;3.13;;;1.55;;
54575;SDS011;40472;53.486;14.542;2023-04-24T01:39:34;2.47;;;2.28;;
54575;SDS011;40472;53.486;14.542;2023-04-24T01:42:00;2.22;;;1.90;;
54575;SDS011;40472;53.486;14.542;2023-04-24T01:44:27;2.15;;;1.42;;
54575;SDS011;40472;53.486;14.542;2023-04-24T01:46:54;6.35;;;4.03;;
54575;SDS011;40472;53.486;14.542;2023-04-24T01:49:20;1.15;;;1.05;;
54575;SDS011;40472;53.486;14.542;2023-04-24T01:51:46;3.90;;;1.52;;
54575;SDS011;40472;53.486;14.542;2023-04-24T01:54:12;2.50;;;2.00;;
54575;SDS011;40472;53.486;14.542;2023-04-24T01:56:42;1.92;;;1.63;;
54575;SDS011;40472;53.486;14.542;2023-04-24T01:59:14;2.78;;;1.65;;
54575;SDS011;40472;53.486;14.542;2023-04-24T02:01:42;4.38;;;2.40;;
54575;SDS011;40472;53.486;14.542;2023-04-24T02:04:08;2.50;;;2.13;;
54575;SDS011;40472;53.486;14.542;2023-04-24T02:06:34;3.03;;;2.38;;
54575;SDS011;40472;53.486;14.542;2023-04-24T02:09:03;1.55;;;1.45;;
54575;SDS011;40472;53.486;14.542;2023-04-24T02:11:28;6.60;;;2.20;;
54575;SDS011;40472;53.486;14.542;2023-04-24T02:13:54;3.50;;;1.77;;
54575;SDS011;40472;53.486;14.542;2023-04-24T02:16:20;3.92;;;1.80;;
54575;SDS011;40472;53.486;14.542;2023-04-24T02:18:46;2.60;;;1.90;;
54575;SDS011;40472;53.486;14.542;2023-04-24T02:21:12;3.08;;;2.55;;
54575;SDS011;40472;53.486;14.542;2023-04-24T02:23:40;2.28;;;1.98;;
54575;SDS011;40472;53.486;14.542;2023-04-24T02:26:05;4.25;;;2.45;;
54575;SDS011;40472;53.486;14.542;2023-04-24T02:28:32;3.33;;;1.13;;
54575;SDS011;40472;53.486;14.542;2023-04-24T02:30:58;2.25;;;1.92;;
54575;SDS011;40472;53.486;14.542;2023-04-24T02:33:28;1.15;;;1.08;;
54575;SDS011;40472;53.486;14.542;2023-04-24T02:35:54;2.00;;;1.48;;
54575;SDS011;40472;53.486;14.542;2023-04-24T02:38:20;1.75;;;1.52;;
54575;SDS011;40472;53.486;14.542;2023-04-24T02:40:45;2.25;;;2.08;;
54575;SDS011;40472;53.486;14.542;2023-04-24T02:43:11;3.50;;;2.63;;
54575;SDS011;40472;53.486;14.542;2023-04-24T02:45:37;3.40;;;2.25;;
54575;SDS011;40472;53.486;14.542;2023-04-24T02:48:03;2.42;;;2.22;;
54575;SDS011;40472;53.486;14.542;2023-04-24T02:50:29;2.25;;;1.25;;
54575;SDS011;40472;53.486;14.542;2023-04-24T02:52:55;2.42;;;1.80;;
54575;SDS011;40472;53.486;14.542;2023-04-24T02:55:20;3.75;;;1.85;;
54575;SDS011;40472;53.486;14.542;2023-04-24T02:57:48;5.00;;;2.17;;
54575;SDS011;40472;53.486;14.542;2023-04-24T03:00:16;3.55;;;1.88;;
54575;SDS011;40472;53.486;14.542;2023-04-24T03:02:42;2.42;;;1.60;;
54575;SDS011;40472;53.486;14.542;2023-04-24T03:05:07;2.65;;;1.83;;
54575;SDS011;40472;53.486;14.542;2023-04-24T03:07:34;9.38;;;3.15;;
54575;SDS011;40472;53.486;14.542;2023-04-24T03:10:00;5.30;;;1.63;;
54575;SDS011;40472;53.486;14.542;2023-04-24T03:12:26;1.50;;;1.23;;
54575;SDS011;40472;53.486;14.542;2023-04-24T03:14:51;9.50;;;2.15;;
54575;SDS011;40472;53.486;14.542;2023-04-24T03:17:17;1.38;;;1.27;;
54575;SDS011;40472;53.486;14.542;2023-04-24T03:19:43;3.78;;;1.88;;
54575;SDS011;40472;53.486;14.542;2023-04-24T03:22:11;2.92;;;2.58;;
54575;SDS011;40472;53.486;14.542;2023-04-24T03:24:37;2.10;;;1.75;;
54575;SDS011;40472;53.486;14.542;2023-04-24T03:27:02;2.53;;;1.63;;
54575;SDS011;40472;53.486;14.542;2023-04-24T03:29:28;1.95;;;1.63;;
54575;SDS011;40472;53.486;14.542;2023-04-24T03:31:54;1.55;;;1.35;;
54575;SDS011;40472;53.486;14.542;2023-04-24T03:34:22;4.07;;;1.90;;
54575;SDS011;40472;53.486;14.542;2023-04-24T03:36:48;2.35;;;1.15;;
54575;SDS011;40472;53.486;14.542;2023-04-24T03:39:14;2.63;;;1.75;;
54575;SDS011;40472;53.486;14.542;2023-04-24T03:41:39;1.23;;;1.13;;
54575;SDS011;40472;53.486;14.542;2023-04-24T03:44:07;3.38;;;1.95;;
54575;SDS011;40472;53.486;14.542;2023-04-24T03:46:33;5.45;;;2.00;;
54575;SDS011;40472;53.486;14.542;2023-04-24T03:48:59;1.58;;;1.23;;
54575;SDS011;40472;53.486;14.542;2023-04-24T03:51:25;1.50;;;1.05;;
54575;SDS011;40472;53.486;14.542;2023-04-24T03:53:52;3.65;;;2.60;;
54575;SDS011;40472;53.486;14.542;2023-04-24T03:56:20;3.13;;;1.75;;
54575;SDS011;40472;53.486;14.542;2023-04-24T03:58:46;1.50;;;1.35;;
54575;SDS011;40472;53.486;14.542;2023-04-24T04:01:12;4.40;;;1.80;;
54575;SDS011;40472;53.486;14.542;2023-04-24T04:03:38;2.33;;;1.95;;
54575;SDS011;40472;53.486;14.542;2023-04-24T04:06:04;4.90;;;1.92;;
54575;SDS011;40472;53.486;14.542;2023-04-24T04:08:30;4.10;;;1.90;;
54575;SDS011;40472;53.486;14.542;2023-04-24T04:10:55;2.72;;;1.55;;
54575;SDS011;40472;53.486;14.542;2023-04-24T04:13:23;2.85;;;1.48;;
54575;SDS011;40472;53.486;14.542;2023-04-24T04:15:49;2.53;;;1.75;;
54575;SDS011;40472;53.486;14.542;2023-04-24T04:18:15;4.60;;;1.65;;
54575;SDS011;40472;53.486;14.542;2023-04-24T04:20:41;9.07;;;4.10;;
54575;SDS011;40472;53.486;14.542;2023-04-24T04:23:07;2.05;;;1.52;;
54575;SDS011;40472;53.486;14.542;2023-04-24T04:25:35;3.17;;;1.95;;
54575;SDS011;40472;53.486;14.542;2023-04-24T04:28:01;4.90;;;2.58;;
54575;SDS011;40472;53.486;14.542;2023-04-24T04:30:27;1.60;;;1.48;;
54575;SDS011;40472;53.486;14.542;2023-04-24T04:32:54;1.50;;;1.40;;
54575;SDS011;40472;53.486;14.542;2023-04-24T04:35:22;3.45;;;1.95;;
54575;SDS011;40472;53.486;14.542;2023-04-24T04:37:48;2.22;;;2.05;;
54575;SDS011;40472;53.486;14.542;2023-04-24T04:40:14;3.15;;;2.85;;
54575;SDS011;40472;53.486;14.542;2023-04-24T04:42:40;4.97;;;3.30;;
54575;SDS011;40472;53.486;14.542;2023-04-24T04:45:11;1.38;;;0.98;;
54575;SDS011;40472;53.486;14.542;2023-04-24T04:47:37;3.55;;;2.60;;
54575;SDS011;40472;53.486;14.542;2023-04-24T04:50:05;4.57;;;3.17;;
54575;SDS011;40472;53.486;14.542;2023-04-24T04:52:31;5.05;;;3.25;;
54575;SDS011;40472;53.486;14.542;2023-04-24T04:54:59;4.90;;;2.75;;
54575;SDS011;40472;53.486;14.542;2023-04-24T04:57:25;6.25;;;3.55;;
54575;SDS011;40472;53.486;14.542;2023-04-24T04:59:50;5.55;;;3.58;;
54575;SDS011;40472;53.486;14.542;2023-04-24T05:02:16;6.93;;;4.15;;
54575;SDS011;40472;53.486;14.542;2023-04-24T05:04:42;3.78;;;2.85;;
54575;SDS011;40472;53.486;14.542;2023-04-24T05:07:08;5.60;;;2.85;;
54575;SDS011;40472;53.486;14.542;2023-04-24T05:09:33;6.57;;;3.17;;
54575;SDS011;40472;53.486;14.542;2023-04-24T05:11:59;4.40;;;3.55;;
54575;SDS011;40472;53.486;14.542;2023-04-24T05:14:25;3.40;;;2.50;;
54575;SDS011;40472;53.486;14.542;2023-04-24T05:16:51;3.95;;;3.08;;
54575;SDS011;40472;53.486;14.542;2023-04-24T05:19:16;6.10;;;3.83;;
54575;SDS011;40472;53.486;14.542;2023-04-24T05:21:42;3.78;;;3.05;;
54575;SDS011;40472;53.486;14.542;2023-04-24T05:24:08;4.97;;;3.97;;
54575;SDS011;40472;53.486;14.542;2023-04-24T05:26:34;13.38;;;3.63;;
54575;SDS011;40472;53.486;14.542;2023-04-24T05:29:00;3.97;;;3.00;;
54575;SDS011;40472;53.486;14.542;2023-04-24T05:31:27;2.58;;;2.28;;
54575;SDS011;40472;53.486;14.542;2023-04-24T05:33:53;6.70;;;2.33;;
54575;SDS011;40472;53.486;14.542;2023-04-24T05:36:18;5.13;;;2.45;;
54575;SDS011;40472;53.486;14.542;2023-04-24T05:38:44;3.45;;;2.88;;
54575;SDS011;40472;53.486;14.542;2023-04-24T05:41:10;3.63;;;2.58;;
54575;SDS011;40472;53.486;14.542;2023-04-24T05:43:36;6.28;;;3.38;;
54575;SDS011;40472;53.486;14.542;2023-04-24T05:46:01;4.63;;;2.55;;
54575;SDS011;40472;53.486;14.542;2023-04-24T05:48:27;5.22;;;2.70;;
54575;SDS011;40472;53.486;14.542;2023-04-24T05:50:53;6.80;;;4.10;;
54575;SDS011;40472;53.486;14.542;2023-04-24T05:53:19;4.57;;;3.08;;
54575;SDS011;40472;53.486;14.542;2023-04-24T05:55:44;4.22;;;2.45;;
54575;SDS011;40472;53.486;14.542;2023-04-24T05:58:11;4.25;;;2.92;;
54575;SDS011;40472;53.486;14.542;2023-04-24T06:00:37;3.95;;;2.72;;
54575;SDS011;40472;53.486;14.542;2023-04-24T06:03:04;3.72;;;3.05;;
54575;SDS011;40472;53.486;14.542;2023-04-24T06:05:30;5.50;;;4.18;;
54575;SDS011;40472;53.486;14.542;2023-04-24T06:07:56;3.22;;;2.33;;
54575;SDS011;40472;53.486;14.542;2023-04-24T06:10:22;2.55;;;2.03;;
54575;SDS011;40472;53.486;14.542;2023-04-24T06:12:48;3.88;;;3.05;;
54575;SDS011;40472;53.486;14.542;2023-04-24T06:15:13;4.57;;;2.90;;
54575;SDS011;40472;53.486;14.542;2023-04-24T06:17:39;4.53;;;3.13;;
54575;SDS011;40472;53.486;14.542;2023-04-24T06:20:05;3.38;;;2.30;;
54575;SDS011;40472;53.486;14.542;2023-04-24T06:22:32;6.50;;;3.80;;
54575;SDS011;40472;53.486;14.542;2023-04-24T06:24:59;5.15;;;2.70;;
54575;SDS011;40472;53.486;14.542;2023-04-24T06:27:25;4.97;;;2.38;;
54575;SDS011;40472;53.486;14.542;2023-04-24T06:29:51;2.42;;;1.95;;
54575;SDS011;40472;53.486;14.542;2023-04-24T06:32:22;4.47;;;3.25;;
54575;SDS011;40472;53.486;14.542;2023-04-24T06:34:50;6.05;;;3.35;;
54575;SDS011;40472;53.486;14.542;2023-04-24T06:37:18;7.65;;;3.13;;
54575;SDS011;40472;53.486;14.542;2023-04-24T06:39:45;17.70;;;3.95;;
54575;SDS011;40472;53.486;14.542;2023-04-24T06:42:11;2.58;;;2.15;;
54575;SDS011;40472;53.486;14.542;2023-04-24T06:44:37;4.60;;;1.90;;
54575;SDS011;40472;53.486;14.542;2023-04-24T06:47:09;1.30;;;1.20;;
54575;SDS011;40472;53.486;14.542;2023-04-24T06:49:36;2.85;;;2.65;;
54575;SDS011;40472;53.486;14.542;2023-04-24T06:52:03;1.25;;;1.15;;
54575;SDS011;40472;53.486;14.542;2023-04-24T06:54:29;1.75;;;1.63;;
54575;SDS011;40472;53.486;14.542;2023-04-24T06:56:55;5.35;;;2.30;;
54575;SDS011;40472;53.486;14.542;2023-04-24T06:59:23;0.47;;;0.47;;
54575;SDS011;40472;53.486;14.542;2023-04-24T07:01:52;2.58;;;2.30;;
54575;SDS011;40472;53.486;14.542;2023-04-24T07:04:18;1.80;;;1.15;;
54575;SDS011;40472;53.486;14.542;2023-04-24T07:06:45;2.05;;;1.50;;
54575;SDS011;40472;53.486;14.542;2023-04-24T07:09:11;5.18;;;2.47;;
54575;SDS011;40472;53.486;14.542;2023-04-24T07:11:39;1.20;;;1.10;;
54575;SDS011;40472;53.486;14.542;2023-04-24T07:14:06;1.75;;;1.40;;
54575;SDS011;40472;53.486;14.542;2023-04-24T07:16:32;1.38;;;0.93;;
54575;SDS011;40472;53.486;14.542;2023-04-24T07:18:58;1.90;;;1.70;;
54575;SDS011;40472;53.486;14.542;2023-04-24T07:21:23;1.98;;;1.30;;
54575;SDS011;40472;53.486;14.542;2023-04-24T07:23:50;1.92;;;1.60;;
54575;SDS011;40472;53.486;14.542;2023-04-24T07:26:16;0.73;;;0.73;;
54575;SDS011;40472;53.486;14.542;2023-04-24T07:28:42;2.88;;;1.80;;
54575;SDS011;40472;53.486;14.542;2023-04-24T07:31:08;2.90;;;1.95;;
54575;SDS011;40472;53.486;14.542;2023-04-24T07:33:35;1.05;;;0.95;;
54575;SDS011;40472;53.486;14.542;2023-04-24T07:36:01;0.70;;;0.70;;
54575;SDS011;40472;53.486;14.542;2023-04-24T07:38:29;4.15;;;1.25;;
54575;SDS011;40472;53.486;14.542;2023-04-24T07:40:55;1.98;;;1.17;;
54575;SDS011;40472;53.486;14.542;2023-04-24T07:43:21;1.50;;;1.35;;
54575;SDS011;40472;53.486;14.542;2023-04-24T07:45:49;0.82;;;0.82;;
54575;SDS011;40472;53.486;14.542;2023-04-24T07:48:16;0.77;;;0.77;;
54575;SDS011;40472;53.486;14.542;2023-04-24T07:50:43;1.58;;;1.48;;
54575;SDS011;40472;53.486;14.542;2023-04-24T07:53:10;1.17;;;1.08;;
54575;SDS011;40472;53.486;14.542;2023-04-24T07:58:56;1.08;;;0.98;;
54575;SDS011;40472;53.486;14.542;2023-04-24T08:01:21;1.40;;;1.30;;
54575;SDS011;40472;53.486;14.542;2023-04-24T08:03:47;0.32;;;0.28;;
54575;SDS011;40472;53.486;14.542;2023-04-24T08:06:13;0.77;;;0.77;;
54575;SDS011;40472;53.486;14.542;2023-04-24T08:08:42;2.60;;;1.50;;
54575;SDS011;40472;53.486;14.542;2023-04-24T08:11:10;1.52;;;1.13;;
54575;SDS011;40472;53.486;14.542;2023-04-24T08:13:36;2.28;;;1.83;;
54575;SDS011;40472;53.486;14.542;2023-04-24T08:16:02;1.75;;;1.35;;
54575;SDS011;40472;53.486;14.542;2023-04-24T08:18:28;6.13;;;1.65;;
54575;SDS011;40472;53.486;14.542;2023-04-24T08:20:54;3.15;;;2.00;;
54575;SDS011;40472;53.486;14.542;2023-04-24T08:23:21;0.82;;;0.73;;
54575;SDS011;40472;53.486;14.542;2023-04-24T08:25:47;0.70;;;0.60;;
54575;SDS011;40472;53.486;14.542;2023-04-24T08:28:13;1.80;;;1.50;;
54575;SDS011;40472;53.486;14.542;2023-04-24T08:30:44;1.55;;;0.82;;
54575;SDS011;40472;53.486;14.542;2023-04-24T08:33:11;5.88;;;2.15;;
54575;SDS011;40472;53.486;14.542;2023-04-24T08:35:38;0.98;;;0.50;;
54575;SDS011;40472;53.486;14.542;2023-04-24T08:38:04;0.55;;;0.32;;
54575;SDS011;40472;53.486;14.542;2023-04-24T08:40:30;1.25;;;1.15;;
54575;SDS011;40472;53.486;14.542;2023-04-24T08:42:59;2.42;;;1.63;;
54575;SDS011;40472;53.486;14.542;2023-04-24T08:45:25;0.80;;;0.80;;
54575;SDS011;40472;53.486;14.542;2023-04-24T08:47:52;1.10;;;1.00;;
54575;SDS011;40472;53.486;14.542;2023-04-24T08:50:20;4.10;;;1.80;;
54575;SDS011;40472;53.486;14.542;2023-04-24T08:52:46;2.40;;;2.20;;
54575;SDS011;40472;53.486;14.542;2023-04-24T08:55:15;1.40;;;0.75;;
54575;SDS011;40472;53.486;14.542;2023-04-24T08:57:44;1.00;;;0.90;;
54575;SDS011;40472;53.486;14.542;2023-04-24T09:00:10;0.40;;;0.32;;
54575;SDS011;40472;53.486;14.542;2023-04-24T09:02:39;1.67;;;1.30;;
54575;SDS011;40472;53.486;14.542;2023-04-24T09:05:07;1.20;;;0.95;;
54575;SDS011;40472;53.486;14.542;2023-04-24T09:07:35;1.52;;;0.68;;
54575;SDS011;40472;53.486;14.542;2023-04-24T09:10:06;2.95;;;0.73;;
54575;SDS011;40472;53.486;14.542;2023-04-24T09:12:34;2.22;;;1.15;;
54575;SDS011;40472;53.486;14.542;2023-04-24T09:15:00;5.78;;;1.20;;
54575;SDS011;40472;53.486;14.542;2023-04-24T09:17:28;2.13;;;1.50;;
54575;SDS011;40472;53.486;14.542;2023-04-24T09:19:59;0.32;;;0.32;;
54575;SDS011;40472;53.486;14.542;2023-04-24T09:22:25;1.55;;;0.63;;
54575;SDS011;40472;53.486;14.542;2023-04-24T09:25:04;0.70;;;0.57;;
54575;SDS011;40472;53.486;14.542;2023-04-24T09:27:32;2.42;;;1.02;;
54575;SDS011;40472;53.486;14.542;2023-04-24T09:29:58;1.00;;;0.88;;
54575;SDS011;40472;53.486;14.542;2023-04-24T09:32:25;0.82;;;0.50;;
54575;SDS011;40472;53.486;14.542;2023-04-24T09:35:07;2.50;;;0.57;;
54575;SDS011;40472;53.486;14.542;2023-04-24T09:37:41;1.63;;;0.90;;
54575;SDS011;40472;53.486;14.542;2023-04-24T09:42:39;0.40;;;0.40;;
54575;SDS011;40472;53.486;14.542;2023-04-24T09:45:08;1.48;;;0.63;;
54575;SDS011;40472;53.486;14.542;2023-04-24T09:47:39;0.65;;;0.35;;
54575;SDS011;40472;53.486;14.542;2023-04-24T09:50:09;0.20;;;0.20;;
54575;SDS011;40472;53.486;14.542;2023-04-24T09:52:40;2.70;;;0.80;;
54575;SDS011;40472;53.486;14.542;2023-04-24T09:55:18;1.63;;;0.90;;
54575;SDS011;40472;53.486;14.542;2023-04-24T09:57:52;0.73;;;0.50;;
54575;SDS011;40472;53.486;14.542;2023-04-24T10:03:01;3.00;;;1.15;;
54575;SDS011;40472;53.486;14.542;2023-04-24T10:05:31;2.65;;;0.70;;
54575;SDS011;40472;53.486;14.542;2023-04-24T10:08:03;0.75;;;0.60;;
54575;SDS011;40472;53.486;14.542;2023-04-24T10:10:30;0.73;;;0.68;;
54575;SDS011;40472;53.486;14.542;2023-04-24T10:12:57;0.75;;;0.52;;
54575;SDS011;40472;53.486;14.542;2023-04-24T10:15:24;0.95;;;0.77;;
54575;SDS011;40472;53.486;14.542;2023-04-24T10:17:52;1.27;;;0.95;;
54575;SDS011;40472;53.486;14.542;2023-04-24T10:20:19;2.40;;;1.00;;
54575;SDS011;40472;53.486;14.542;2023-04-24T10:22:49;1.25;;;0.77;;
54575;SDS011;40472;53.486;14.542;2023-04-24T10:25:20;0.10;;;0.10;;
54575;SDS011;40472;53.486;14.542;2023-04-24T10:27:49;0.52;;;0.52;;
54575;SDS011;40472;53.486;14.542;2023-04-24T10:30:16;1.50;;;0.88;;
54575;SDS011;40472;53.486;14.542;2023-04-24T10:32:42;1.10;;;0.88;;
54575;SDS011;40472;53.486;14.542;2023-04-24T10:35:09;0.90;;;0.73;;
54575;SDS011;40472;53.486;14.542;2023-04-24T10:37:37;0.68;;;0.60;;
54575;SDS011;40472;53.486;14.542;2023-04-24T10:40:10;0.70;;;0.70;;
54575;SDS011;40472;53.486;14.542;2023-04-24T10:42:41;0.80;;;0.68;;
54575;SDS011;40472;53.486;14.542;2023-04-24T10:45:16;0.70;;;0.55;;
54575;SDS011;40472;53.486;14.542;2023-04-24T10:47:50;0.70;;;0.47;;
54575;SDS011;40472;53.486;14.542;2023-04-24T10:50:23;0.60;;;0.47;;
54575;SDS011;40472;53.486;14.542;2023-04-24T10:52:51;0.32;;;0.32;;
54575;SDS011;40472;53.486;14.542;2023-04-24T10:58:23;3.15;;;1.27;;
54575;SDS011;40472;53.486;14.542;2023-04-24T11:00:56;0.77;;;0.57;;
54575;SDS011;40472;53.486;14.542;2023-04-24T11:03:24;1.20;;;0.93;;
54575;SDS011;40472;53.486;14.542;2023-04-24T11:08:26;3.45;;;1.13;;
54575;SDS011;40472;53.486;14.542;2023-04-24T11:10:57;1.25;;;0.60;;
54575;SDS011;40472;53.486;14.542;2023-04-24T11:13:25;2.75;;;1.13;;
54575;SDS011;40472;53.486;14.542;2023-04-24T11:18:38;1.90;;;0.75;;
54575;SDS011;40472;53.486;14.542;2023-04-24T11:21:11;0.55;;;0.55;;
54575;SDS011;40472;53.486;14.542;2023-04-24T11:23:37;1.17;;;0.88;;
54575;SDS011;40472;53.486;14.542;2023-04-24T11:26:21;33.63;;;1.20;;
54575;SDS011;40472;53.486;14.542;2023-04-24T11:28:51;0.95;;;0.50;;
54575;SDS011;40472;53.486;14.542;2023-04-24T11:34:06;0.10;;;0.10;;
54575;SDS011;40472;53.486;14.542;2023-04-24T11:36:37;1.17;;;0.77;;
54575;SDS011;40472;53.486;14.542;2023-04-24T11:39:03;1.35;;;0.60;;
54575;SDS011;40472;53.486;14.542;2023-04-24T11:41:29;1.30;;;0.73;;
54575;SDS011;40472;53.486;14.542;2023-04-24T11:43:55;0.40;;;0.30;;
54575;SDS011;40472;53.486;14.542;2023-04-24T11:46:22;1.88;;;0.60;;
54575;SDS011;40472;53.486;14.542;2023-04-24T11:48:48;0.30;;;0.30;;
54575;SDS011;40472;53.486;14.542;2023-04-24T11:51:13;0.38;;;0.32;;
54575;SDS011;40472;53.486;14.542;2023-04-24T11:53:40;0.50;;;0.47;;
54575;SDS011;40472;53.486;14.542;2023-04-24T11:56:05;0.38;;;0.38;;
54575;SDS011;40472;53.486;14.542;2023-04-24T11:58:39;0.73;;;0.57;;
54575;SDS011;40472;53.486;14.542;2023-04-24T12:03:42;0.40;;;0.30;;
54575;SDS011;40472;53.486;14.542;2023-04-24T12:06:13;1.58;;;0.40;;
54575;SDS011;40472;53.486;14.542;2023-04-24T12:08:39;1.30;;;0.93;;
54575;SDS011;40472;53.486;14.542;2023-04-24T12:11:05;0.10;;;0.10;;
54575;SDS011;40472;53.486;14.542;2023-04-24T12:13:32;0.20;;;0.20;;
54575;SDS011;40472;53.486;14.542;2023-04-24T12:15:59;1.02;;;0.30;;
54575;SDS011;40472;53.486;14.542;2023-04-24T12:18:28;0.10;;;0.10;;
54575;SDS011;40472;53.486;14.542;2023-04-24T12:20:53;0.20;;;0.20;;
54575;SDS011;40472;53.486;14.542;2023-04-24T12:23:34;0.25;;;0.20;;
54575;SDS011;40472;53.486;14.542;2023-04-24T12:26:03;1.27;;;0.73;;
54575;SDS011;40472;53.486;14.542;2023-04-24T12:28:36;0.65;;;0.43;;
54575;SDS011;40472;53.486;14.542;2023-04-24T12:31:03;0.75;;;0.47;;
54575;SDS011;40472;53.486;14.542;2023-04-24T12:33:32;0.20;;;0.20;;
54575;SDS011;40472;53.486;14.542;2023-04-24T12:35:59;0.57;;;0.30;;
54575;SDS011;40472;53.486;14.542;2023-04-24T12:38:26;0.55;;;0.28;;
54575;SDS011;40472;53.486;14.542;2023-04-24T12:41:05;0.60;;;0.40;;
54575;SDS011;40472;53.486;14.542;2023-04-24T12:43:33;0.70;;;0.25;;
54575;SDS011;40472;53.486;14.542;2023-04-24T12:45:59;0.20;;;0.20;;
54575;SDS011;40472;53.486;14.542;2023-04-24T12:48:26;0.63;;;0.20;;
54575;SDS011;40472;53.486;14.542;2023-04-24T12:50:52;0.10;;;0.10;;
54575;SDS011;40472;53.486;14.542;2023-04-24T12:53:18;1.48;;;0.35;;
54575;SDS011;40472;53.486;14.542;2023-04-24T12:55:44;0.70;;;0.32;;
54575;SDS011;40472;53.486;14.542;2023-04-24T12:58:11;0.28;;;0.20;;
54575;SDS011;40472;53.486;14.542;2023-04-24T13:00:38;0.90;;;0.30;;
54575;SDS011;40472;53.486;14.542;2023-04-24T13:03:04;0.57;;;0.20;;
54575;SDS011;40472;53.486;14.542;2023-04-24T13:05:30;0.10;;;0.10;;
54575;SDS011;40472;53.486;14.542;2023-04-24T13:07:56;0.32;;;0.32;;
54575;SDS011;40472;53.486;14.542;2023-04-24T13:10:23;0.10;;;0.10;;
54575;SDS011;40472;53.486;14.542;2023-04-24T13:12:48;0.10;;;0.10;;
54575;SDS011;40472;53.486;14.542;2023-04-24T13:15:14;0.57;;;0.45;;
54575;SDS011;40472;53.486;14.542;2023-04-24T13:17:40;0.63;;;0.28;;
54575;SDS011;40472;53.486;14.542;2023-04-24T13:20:06;0.10;;;0.10;;
54575;SDS011;40472;53.486;14.542;2023-04-24T13:22:32;0.57;;;0.45;;
54575;SDS011;40472;53.486;14.542;2023-04-24T13:24:58;2.08;;;0.30;;
54575;SDS011;40472;53.486;14.542;2023-04-24T13:27:24;0.25;;;0.20;;
54575;SDS011;40472;53.486;14.542;2023-04-24T13:29:50;0.03;;;0.03;;
54575;SDS011;40472;53.486;14.542;2023-04-24T13:32:16;0.20;;;0.20;;
54575;SDS011;40472;53.486;14.542;2023-04-24T13:34:42;0.00;;;0.00;;
54575;SDS011;40472;53.486;14.542;2023-04-24T13:37:08;0.15;;;0.03;;
54575;SDS011;40472;53.486;14.542;2023-04-24T13:39:34;1.95;;;0.30;;
54575;SDS011;40472;53.486;14.542;2023-04-24T13:42:00;0.10;;;0.10;;
54575;SDS011;40472;53.486;14.542;2023-04-24T13:44:26;0.17;;;0.15;;
54575;SDS011;40472;53.486;14.542;2023-04-24T13:46:52;0.32;;;0.32;;
54575;SDS011;40472;53.486;14.542;2023-04-24T13:49:21;0.82;;;0.43;;
54575;SDS011;40472;53.486;14.542;2023-04-24T13:51:49;0.28;;;0.20;;
54575;SDS011;40472;53.486;14.542;2023-04-24T13:54:16;0.00;;;0.00;;
54575;SDS011;40472;53.486;14.542;2023-04-24T13:56:42;0.35;;;0.10;;
54575;SDS011;40472;53.486;14.542;2023-04-24T13:59:08;0.40;;;0.30;;
54575;SDS011;40472;53.486;14.542;2023-04-24T14:04:10;0.00;;;0.00;;
54575;SDS011;40472;53.486;14.542;2023-04-24T14:06:37;0.10;;;0.10;;
54575;SDS011;40472;53.486;14.542;2023-04-24T14:09:03;0.00;;;0.00;;
54575;SDS011;40472;53.486;14.542;2023-04-24T14:11:29;0.00;;;0.00;;
54575;SDS011;40472;53.486;14.542;2023-04-24T14:13:55;0.10;;;0.10;;
54575;SDS011;40472;53.486;14.542;2023-04-24T14:16:21;0.32;;;0.22;;
54575;SDS011;40472;53.486;14.542;2023-04-24T14:18:47;0.10;;;0.10;;
54575;SDS011;40472;53.486;14.542;2023-04-24T14:21:13;0.10;;;0.10;;
54575;SDS011;40472;53.486;14.542;2023-04-24T14:23:38;0.80;;;0.73;;
54575;SDS011;40472;53.486;14.542;2023-04-24T14:26:05;0.90;;;0.10;;
54575;SDS011;40472;53.486;14.542;2023-04-24T14:28:30;0.00;;;0.00;;
54575;SDS011;40472;53.486;14.542;2023-04-24T14:30:56;0.00;;;0.00;;
54575;SDS011;40472;53.486;14.542;2023-04-24T14:33:22;0.10;;;0.10;;
54575;SDS011;40472;53.486;14.542;2023-04-24T14:35:47;0.00;;;0.00;;
54575;SDS011;40472;53.486;14.542;2023-04-24T14:38:14;0.10;;;0.10;;
54575;SDS011;40472;53.486;14.542;2023-04-24T14:40:40;0.15;;;0.15;;
54575;SDS011;40472;53.486;14.542;2023-04-24T14:43:06;0.20;;;0.20;;
54575;SDS011;40472;53.486;14.542;2023-04-24T14:45:32;0.25;;;0.10;;
54575;SDS011;40472;53.486;14.542;2023-04-24T14:47:57;0.10;;;0.10;;
54575;SDS011;40472;53.486;14.542;2023-04-24T14:50:23;0.10;;;0.10;;
54575;SDS011;40472;53.486;14.542;2023-04-24T14:52:53;0.52;;;0.52;;
54575;SDS011;40472;53.486;14.542;2023-04-24T14:55:22;0.10;;;0.10;;
54575;SDS011;40472;53.486;14.542;2023-04-24T14:57:49;0.65;;;0.28;;